Time;durP1;ratioP1;P1;durP2;ratioP2;P2;SDS_P1;SDS_P2;PMS_P1;PMS_P2;Temp;Humidity;BMP_temperature;BMP_pressure;BME280_temperature;BME280_humidity;BME280_pressure;Samples;Min_cycle;Max_cycle;Signal;HPM_P1;HPM_P2
2022/04/14 00:01:53;;;;;;;14.27;7.85;;;;;;;;;;4996503;28;20112;-73
2022/04/14 00:04:19;;;;;;;14.30;7.53;;;;;;;;;;4996249;28;20025;-71
2022/04/14 00:06:46;;;;;;;12.95;7.72;;;;;;;;;;4996901;28;20377;-73
2022/04/14 00:09:12;;;;;;;13.57;7.80;;;;;;;;;;5012945;28;20123;-73
2022/04/14 00:11:38;;;;;;;11.95;7.32;;;;;;;;;;5013999;28;20058;-71
2022/04/14 00:14:05;;;;;;;16.65;7.65;;;;;;;;;;5014209;28;20041;-73
2022/04/14 00:16:31;;;;;;;15.43;8.07;;;;;;;;;;4996287;28;20026;-73
2022/04/14 00:18:57;;;;;;;12.35;7.03;;;;;;;;;;5013402;28;20486;-73
2022/04/14 00:21:23;;;;;;;12.20;7.63;;;;;;;;;;4996231;28;20022;-73
2022/04/14 00:23:49;;;;;;;17.05;7.70;;;;;;;;;;5013642;28;20082;-72
2022/04/14 00:26:15;;;;;;;11.85;7.82;;;;;;;;;;5014237;28;20076;-71
2022/04/14 00:28:41;;;;;;;13.20;7.82;;;;;;;;;;5013891;28;20022;-73
2022/04/14 00:31:07;;;;;;;12.95;7.47;;;;;;;;;;5014275;28;20088;-72
2022/04/14 00:33:33;;;;;;;16.27;7.22;;;;;;;;;;4996571;28;20026;-72
2022/04/14 00:35:59;;;;;;;18.08;7.57;;;;;;;;;;5013764;28;20037;-73
2022/04/14 00:38:25;;;;;;;15.02;7.93;;;;;;;;;;5013550;28;20025;-71
2022/04/14 00:40:52;;;;;;;11.55;7.50;;;;;;;;;;5023415;28;20025;-72
2022/04/14 00:43:20;;;;;;;13.50;7.45;;;;;;;;;;5033577;28;20020;-72
2022/04/14 00:45:49;;;;;;;15.27;8.05;;;;;;;;;;5033288;28;20025;-72
2022/04/14 00:48:15;;;;;;;12.45;7.25;;;;;;;;;;5032899;28;20013;-71
2022/04/14 00:50:41;;;;;;;17.27;9.75;;;;;;;;;;5033281;28;20487;-71
2022/04/14 00:53:07;;;;;;;12.15;7.43;;;;;;;;;;5033043;28;20148;-71
2022/04/14 00:55:33;;;;;;;16.42;8.90;;;;;;;;;;5033341;28;20049;-72
2022/04/14 00:57:59;;;;;;;15.82;7.93;;;;;;;;;;5032879;28;20213;-73
2022/04/14 01:00:25;;;;;;;17.98;7.93;;;;;;;;;;5016630;28;20022;-73
2022/04/14 01:02:52;;;;;;;10.38;6.70;;;;;;;;;;5034543;28;20411;-72
2022/04/14 01:05:19;;;;;;;11.93;6.88;;;;;;;;;;5020104;28;20034;-72
2022/04/14 01:07:46;;;;;;;15.90;7.35;;;;;;;;;;5016617;28;20026;-73
2022/04/14 01:10:12;;;;;;;13.95;7.32;;;;;;;;;;5003825;28;20025;-71
2022/04/14 01:12:38;;;;;;;10.52;6.85;;;;;;;;;;5035674;28;20022;-72
2022/04/14 01:15:04;;;;;;;12.30;7.03;;;;;;;;;;5035107;28;20025;-71
2022/04/14 01:17:30;;;;;;;13.48;7.50;;;;;;;;;;5032753;28;20513;-71
2022/04/14 01:19:56;;;;;;;13.07;7.65;;;;;;;;;;5032740;28;20022;-73
2022/04/14 01:22:31;;;;;;;11.85;7.28;;;;;;;;;;5032709;28;20426;-72
2022/04/14 01:24:58;;;;;;;12.13;7.35;;;;;;;;;;5033441;28;20034;-72
2022/04/14 01:27:24;;;;;;;11.73;7.10;;;;;;;;;;5029024;28;20108;-71
2022/04/14 01:29:53;;;;;;;14.48;6.90;;;;;;;;;;5032530;28;20026;-71
2022/04/14 01:32:20;;;;;;;12.10;7.45;;;;;;;;;;5014275;28;20075;-71
2022/04/14 01:34:46;;;;;;;13.43;6.45;;;;;;;;;;5003962;28;20476;-72
2022/04/14 01:37:12;;;;;;;14.00;6.60;;;;;;;;;;5012086;28;20029;-72
2022/04/14 01:39:38;;;;;;;12.80;8.02;;;;;;;;;;4994778;28;20100;-73
2022/04/14 01:42:04;;;;;;;15.85;7.88;;;;;;;;;;5012646;28;20026;-73
2022/04/14 01:44:30;;;;;;;13.25;7.35;;;;;;;;;;5012908;28;20050;-73
2022/04/14 01:46:56;;;;;;;12.73;7.63;;;;;;;;;;5013295;28;20030;-73
2022/04/14 01:49:23;;;;;;;13.27;7.50;;;;;;;;;;5013692;28;20502;-73
2022/04/14 01:51:49;;;;;;;14.23;7.45;;;;;;;;;;5013192;28;20129;-73
2022/04/14 01:54:15;;;;;;;11.98;7.45;;;;;;;;;;4995759;28;20021;-73
2022/04/14 01:56:41;;;;;;;15.70;7.95;;;;;;;;;;5013757;28;20030;-73
2022/04/14 01:59:07;;;;;;;13.63;7.45;;;;;;;;;;5012565;28;20080;-73
2022/04/14 02:01:33;;;;;;;16.15;8.60;;;;;;;;;;5012214;28;20030;-73
2022/04/14 02:04:02;;;;;;;12.32;7.75;;;;;;;;;;5011919;28;20024;-72
2022/04/14 02:06:28;;;;;;;13.65;7.32;;;;;;;;;;4994368;28;20022;-73
2022/04/14 02:08:54;;;;;;;16.88;7.57;;;;;;;;;;5011282;28;20388;-73
2022/04/14 02:11:20;;;;;;;13.52;7.90;;;;;;;;;;5007495;28;20029;-74
2022/04/14 02:13:46;;;;;;;15.18;7.43;;;;;;;;;;5031083;28;20419;-73
2022/04/14 02:16:12;;;;;;;10.73;7.30;;;;;;;;;;5031905;28;20100;-72
2022/04/14 02:18:38;;;;;;;12.43;7.22;;;;;;;;;;5031265;28;20027;-73
2022/04/14 02:21:03;;;;;;;15.38;8.38;;;;;;;;;;5032881;28;20482;-73
2022/04/14 02:23:30;;;;;;;16.88;7.82;;;;;;;;;;5014205;28;20391;-72
2022/04/14 02:25:56;;;;;;;14.00;6.75;;;;;;;;;;5032120;28;20036;-72
2022/04/14 02:28:22;;;;;;;11.38;6.47;;;;;;;;;;5031296;28;20021;-72
2022/04/14 02:30:49;;;;;;;14.07;8.20;;;;;;;;;;5031790;28;20064;-73
2022/04/14 02:33:15;;;;;;;16.00;7.35;;;;;;;;;;5032698;28;20029;-73
2022/04/14 02:35:41;;;;;;;10.85;6.70;;;;;;;;;;5014858;28;20026;-73
2022/04/14 02:38:07;;;;;;;14.30;7.93;;;;;;;;;;5010845;28;20032;-74
2022/04/14 02:40:33;;;;;;;11.80;6.63;;;;;;;;;;5011413;28;20093;-73
2022/04/14 02:42:59;;;;;;;10.93;6.63;;;;;;;;;;5012006;28;20033;-73
2022/04/14 02:45:25;;;;;;;15.32;7.20;;;;;;;;;;5011858;28;20029;-72
2022/04/14 02:47:52;;;;;;;9.85;6.38;;;;;;;;;;5012195;28;20210;-72
2022/04/14 02:50:19;;;;;;;12.40;6.68;;;;;;;;;;5011408;28;20038;-71
2022/04/14 02:52:45;;;;;;;10.85;7.28;;;;;;;;;;5011888;28;20088;-72
2022/04/14 02:55:11;;;;;;;12.50;6.93;;;;;;;;;;4994473;28;20030;-72
2022/04/14 02:57:37;;;;;;;13.43;7.05;;;;;;;;;;4993424;28;20034;-72
2022/04/14 03:00:09;;;;;;;11.02;7.40;;;;;;;;;;5011318;28;20053;-72
2022/04/14 03:02:35;;;;;;;11.93;6.78;;;;;;;;;;5011993;28;20018;-73
2022/04/14 03:05:02;;;;;;;12.27;6.15;;;;;;;;;;5022624;28;20053;-71
2022/04/14 03:07:28;;;;;;;13.55;7.43;;;;;;;;;;5030031;28;20544;-72
2022/04/14 03:09:54;;;;;;;17.60;7.25;;;;;;;;;;5030823;28;20029;-72
2022/04/14 03:12:20;;;;;;;12.52;7.43;;;;;;;;;;5025525;28;20022;-72
2022/04/14 03:14:50;;;;;;;12.27;7.00;;;;;;;;;;4993490;28;20026;-71
2022/04/14 03:17:16;;;;;;;13.93;6.97;;;;;;;;;;5011205;28;20487;-72
2022/04/14 03:19:42;;;;;;;11.93;7.15;;;;;;;;;;5011934;28;20025;-72
2022/04/14 03:22:08;;;;;;;11.25;7.18;;;;;;;;;;5011989;28;20391;-73
2022/04/14 03:24:34;;;;;;;15.40;6.80;;;;;;;;;;5011329;28;20044;-73
2022/04/14 03:27:00;;;;;;;14.77;8.00;;;;;;;;;;5014182;28;20508;-72
2022/04/14 03:29:32;;;;;;;12.07;7.03;;;;;;;;;;4997537;28;20029;-72
2022/04/14 03:31:58;;;;;;;11.05;7.07;;;;;;;;;;5015215;28;20026;-73
2022/04/14 03:34:24;;;;;;;15.32;7.88;;;;;;;;;;5015005;28;20472;-71
2022/04/14 03:36:50;;;;;;;11.95;7.30;;;;;;;;;;5014606;28;20060;-73
2022/04/14 03:39:17;;;;;;;15.18;8.60;;;;;;;;;;5014004;28;20030;-73
2022/04/14 03:41:43;;;;;;;13.05;6.90;;;;;;;;;;5014623;28;20057;-73
2022/04/14 03:44:09;;;;;;;15.13;8.50;;;;;;;;;;5014597;28;20022;-73
2022/04/14 03:46:35;;;;;;;12.35;7.35;;;;;;;;;;5014890;28;20506;-73
2022/04/14 03:49:01;;;;;;;13.90;8.38;;;;;;;;;;5014043;28;20034;-73
2022/04/14 03:51:27;;;;;;;16.33;7.90;;;;;;;;;;5038160;22;20049;-70
2022/04/14 03:53:53;;;;;;;12.82;8.65;;;;;;;;;;5012823;28;20054;-69
2022/04/14 03:56:19;;;;;;;14.32;6.93;;;;;;;;;;5013751;28;20486;-68
2022/04/14 03:58:45;;;;;;;12.98;6.70;;;;;;;;;;5013053;28;20112;-68
2022/04/14 04:01:11;;;;;;;14.77;6.90;;;;;;;;;;5013807;28;20105;-69
2022/04/14 04:03:37;;;;;;;12.65;6.88;;;;;;;;;;5013640;28;20037;-69
2022/04/14 04:06:03;;;;;;;12.23;7.93;;;;;;;;;;5013697;28;20029;-71
2022/04/14 04:08:29;;;;;;;12.77;6.80;;;;;;;;;;5012993;28;20026;-69
2022/04/14 04:10:54;;;;;;;11.85;7.65;;;;;;;;;;5013662;28;20337;-69
2022/04/14 04:13:20;;;;;;;11.35;7.07;;;;;;;;;;5013428;28;20394;-68
2022/04/14 04:15:46;;;;;;;13.45;7.70;;;;;;;;;;5013390;28;20550;-69
2022/04/14 04:18:12;;;;;;;12.18;7.72;;;;;;;;;;5012803;28;20153;-69
2022/04/14 04:20:38;;;;;;;13.57;7.70;;;;;;;;;;5013474;28;20113;-69
2022/04/14 04:23:05;;;;;;;11.90;7.28;;;;;;;;;;4995935;28;20026;-69
2022/04/14 04:25:31;;;;;;;14.73;7.53;;;;;;;;;;4995546;28;20026;-67
2022/04/14 04:27:57;;;;;;;11.75;6.78;;;;;;;;;;5012481;28;20396;-69
2022/04/14 04:30:23;;;;;;;15.85;6.72;;;;;;;;;;5013307;28;20018;-69
2022/04/14 04:32:49;;;;;;;11.73;7.80;;;;;;;;;;5012884;28;20110;-71
2022/04/14 04:35:15;;;;;;;14.30;8.25;;;;;;;;;;5009324;28;20029;-69
2022/04/14 04:37:41;;;;;;;10.77;7.40;;;;;;;;;;5011146;28;20053;-67
2022/04/14 04:40:08;;;;;;;12.48;7.15;;;;;;;;;;5012689;28;20017;-69
2022/04/14 04:42:34;;;;;;;12.70;7.85;;;;;;;;;;4984447;28;20514;-69
2022/04/14 04:44:59;;;;;;;17.30;7.95;;;;;;;;;;5015590;28;20065;-69
2022/04/14 04:47:25;;;;;;;12.20;7.65;;;;;;;;;;5022979;28;20129;-69
2022/04/14 04:49:51;;;;;;;15.48;6.80;;;;;;;;;;5023627;28;20386;-69
2022/04/14 04:52:17;;;;;;;12.45;7.57;;;;;;;;;;5022554;28;20033;-70
2022/04/14 04:54:44;;;;;;;11.32;6.35;;;;;;;;;;5007519;28;20033;-70
2022/04/14 04:57:10;;;;;;;14.98;7.05;;;;;;;;;;5011946;28;20088;-70
2022/04/14 04:59:36;;;;;;;10.48;6.35;;;;;;;;;;5012513;28;20022;-68
2022/04/14 05:02:02;;;;;;;11.77;6.53;;;;;;;;;;5012511;28;20080;-69
2022/04/14 05:04:28;;;;;;;13.40;7.00;;;;;;;;;;5012603;28;20105;-69
2022/04/14 05:06:54;;;;;;;13.35;6.97;;;;;;;;;;5012291;28;20101;-68
2022/04/14 05:09:20;;;;;;;10.77;7.15;;;;;;;;;;4993980;28;20030;-69
2022/04/14 05:11:46;;;;;;;11.68;7.13;;;;;;;;;;4994549;28;20053;-69
2022/04/14 05:14:12;;;;;;;10.40;6.60;;;;;;;;;;5011919;28;20053;-69
2022/04/14 05:16:38;;;;;;;15.25;7.63;;;;;;;;;;4994519;28;20049;-69
2022/04/14 05:19:05;;;;;;;14.75;6.53;;;;;;;;;;5011507;28;20022;-69
2022/04/14 05:21:31;;;;;;;13.85;6.70;;;;;;;;;;5012385;28;20022;-69
2022/04/14 05:23:57;;;;;;;9.77;5.97;;;;;;;;;;5011617;28;20112;-71
2022/04/14 05:26:23;;;;;;;14.57;6.57;;;;;;;;;;5000474;28;20112;-73
2022/04/14 05:28:49;;;;;;;8.65;5.72;;;;;;;;;;5031348;28;20087;-72
2022/04/14 05:31:15;;;;;;;8.38;6.07;;;;;;;;;;5031923;28;20051;-71
2022/04/14 05:33:41;;;;;;;10.45;5.95;;;;;;;;;;5031752;28;20054;-70
2022/04/14 05:36:07;;;;;;;10.85;5.88;;;;;;;;;;5013505;28;20024;-68
2022/04/14 05:38:33;;;;;;;9.05;6.18;;;;;;;;;;5031348;28;20037;-70
2022/04/14 05:40:59;;;;;;;12.02;6.35;;;;;;;;;;5031858;28;20067;-72
2022/04/14 05:43:27;;;;;;;8.88;5.95;;;;;;;;;;5031740;28;20108;-72
2022/04/14 05:45:54;;;;;;;13.07;7.03;;;;;;;;;;5016501;28;20503;-71
2022/04/14 05:48:20;;;;;;;15.30;7.70;;;;;;;;;;5009905;28;20034;-70
2022/04/14 05:50:47;;;;;;;9.35;5.72;;;;;;;;;;5011447;28;20033;-71
2022/04/14 05:53:13;;;;;;;14.55;7.63;;;;;;;;;;4993996;28;20137;-71
2022/04/14 05:55:40;;;;;;;15.27;7.80;;;;;;;;;;5012124;28;20451;-69
2022/04/14 05:58:06;;;;;;;11.38;8.25;;;;;;;;;;5010567;28;20379;-69
2022/04/14 06:00:33;;;;;;;16.67;10.70;;;;;;;;;;4994056;28;20116;-68
2022/04/14 06:03:00;;;;;;;13.38;8.52;;;;;;;;;;5010934;28;20109;-71
2022/04/14 06:05:32;;;;;;;33.60;21.77;;;;;;;;;;5011819;28;20026;-70
2022/04/14 06:07:58;;;;;;;18.00;9.32;;;;;;;;;;5010438;28;20034;-68
2022/04/14 06:10:25;;;;;;;28.15;18.30;;;;;;;;;;5011273;28;20030;-70
2022/04/14 06:12:51;;;;;;;14.52;6.65;;;;;;;;;;5011328;28;20104;-69
2022/04/14 06:15:19;;;;;;;9.82;6.75;;;;;;;;;;5011553;28;20029;-69
2022/04/14 06:17:45;;;;;;;13.30;8.05;;;;;;;;;;4993920;28;20025;-69
2022/04/14 06:20:12;;;;;;;12.93;7.47;;;;;;;;;;4996739;28;20029;-69
2022/04/14 06:22:41;;;;;;;175.68;98.22;;;;;;;;;;5023680;28;20029;-68
2022/04/14 06:25:12;;;;;;;24.10;10.52;;;;;;;;;;5021165;28;20021;-69
2022/04/14 06:27:39;;;;;;;16.85;9.02;;;;;;;;;;4994492;28;20446;-68
2022/04/14 06:30:05;;;;;;;40.50;19.13;;;;;;;;;;5018996;28;20033;-68
2022/04/14 06:32:31;;;;;;;11.82;8.60;;;;;;;;;;5023904;28;20026;-70
2022/04/14 06:34:57;;;;;;;21.10;11.32;;;;;;;;;;5015476;28;20404;-69
2022/04/14 06:37:23;;;;;;;14.07;7.30;;;;;;;;;;5010163;28;20030;-70
2022/04/14 06:39:49;;;;;;;15.40;7.05;;;;;;;;;;5010966;28;20041;-69
2022/04/14 06:42:15;;;;;;;11.00;6.97;;;;;;;;;;5010664;28;20070;-67
2022/04/14 06:44:41;;;;;;;16.02;9.88;;;;;;;;;;5010939;28;20108;-71
2022/04/14 06:47:07;;;;;;;14.85;7.50;;;;;;;;;;5011332;28;20030;-70
2022/04/14 06:49:34;;;;;;;21.52;9.65;;;;;;;;;;5010308;28;20049;-72
2022/04/14 06:52:01;;;;;;;12.68;6.13;;;;;;;;;;5029509;28;20073;-75
2022/04/14 06:54:27;;;;;;;14.10;6.97;;;;;;;;;;5029317;28;20022;-74
2022/04/14 06:56:53;;;;;;;15.52;7.07;;;;;;;;;;5028829;28;20115;-73
2022/04/14 06:59:19;;;;;;;10.45;6.82;;;;;;;;;;5011947;28;20026;-76
2022/04/14 07:01:45;;;;;;;10.88;6.90;;;;;;;;;;5033135;28;20060;-74
2022/04/14 07:04:11;;;;;;;12.88;7.13;;;;;;;;;;5016281;28;20617;-73
2022/04/14 07:06:37;;;;;;;14.32;7.82;;;;;;;;;;5033700;28;20056;-73
2022/04/14 07:09:03;;;;;;;13.23;7.68;;;;;;;;;;5033363;28;20072;-74
2022/04/14 07:11:29;;;;;;;17.70;9.50;;;;;;;;;;5034094;28;20025;-74
2022/04/14 07:13:55;;;;;;;16.17;7.70;;;;;;;;;;5035028;28;20025;-73
2022/04/14 07:16:21;;;;;;;14.25;9.18;;;;;;;;;;5034275;28;20441;-72
2022/04/14 07:18:47;;;;;;;14.38;7.72;;;;;;;;;;5033939;28;20017;-73
2022/04/14 07:21:13;;;;;;;12.85;8.27;;;;;;;;;;5035023;28;20025;-73
2022/04/14 07:23:39;;;;;;;13.32;7.90;;;;;;;;;;5035105;28;20021;-73
2022/04/14 07:26:05;;;;;;;19.02;9.75;;;;;;;;;;5035025;28;20428;-73
2022/04/14 07:28:31;;;;;;;17.77;10.90;;;;;;;;;;5034118;28;20047;-74
2022/04/14 07:30:57;;;;;;;14.65;7.80;;;;;;;;;;5016724;28;20022;-75
2022/04/14 07:33:23;;;;;;;13.32;8.90;;;;;;;;;;5034798;28;20022;-73
2022/04/14 07:35:50;;;;;;;20.10;10.23;;;;;;;;;;5034655;28;20029;-74
2022/04/14 07:38:16;;;;;;;14.00;9.00;;;;;;;;;;5016058;28;20017;-74
2022/04/14 07:40:42;;;;;;;18.80;10.45;;;;;;;;;;5034305;28;20028;-74
2022/04/14 07:43:09;;;;;;;14.15;8.45;;;;;;;;;;5034394;28;20029;-72
2022/04/14 07:45:35;;;;;;;12.65;8.75;;;;;;;;;;5034232;28;20399;-73
2022/04/14 07:48:02;;;;;;;13.70;9.65;;;;;;;;;;5015895;28;20112;-73
2022/04/14 07:50:28;;;;;;;18.13;10.60;;;;;;;;;;5034419;28;20036;-74
2022/04/14 07:52:55;;;;;;;15.65;10.88;;;;;;;;;;5016501;28;20025;-74
2022/04/14 07:55:41;;;;;;;16.95;10.45;;;;;;;;;;5034291;28;20048;-74
2022/04/14 07:58:09;;;;;;;17.50;13.20;;;;;;;;;;5015403;28;20507;-74
2022/04/14 08:00:35;;;;;;;21.13;14.38;;;;;;;;;;5034407;28;20025;-75
2022/04/14 08:03:02;;;;;;;19.77;12.23;;;;;;;;;;5034584;28;20049;-74
2022/04/14 08:05:29;;;;;;;19.10;12.95;;;;;;;;;;5034305;28;20022;-72
2022/04/14 08:07:55;;;;;;;18.55;12.52;;;;;;;;;;5033261;28;20017;-73
2022/04/14 08:10:21;;;;;;;27.80;16.25;;;;;;;;;;5033908;28;20423;-73
2022/04/14 08:12:47;;;;;;;16.67;12.23;;;;;;;;;;5015398;28;20175;-73
2022/04/14 08:15:14;;;;;;;25.27;16.00;;;;;;;;;;5033687;28;20104;-73
2022/04/14 08:17:41;;;;;;;20.98;15.57;;;;;;;;;;5033202;28;20029;-73
2022/04/14 08:20:07;;;;;;;20.52;14.45;;;;;;;;;;5015943;28;20026;-73
2022/04/14 08:22:47;;;;;;;27.95;18.00;;;;;;;;;;5033653;28;20025;-73
2022/04/14 08:25:14;;;;;;;32.05;17.27;;;;;;;;;;5033493;28;20082;-73
2022/04/14 08:27:40;;;;;;;25.27;17.35;;;;;;;;;;5032863;28;20100;-75
2022/04/14 08:30:07;;;;;;;25.98;17.05;;;;;;;;;;5033715;28;20021;-73
2022/04/14 08:32:34;;;;;;;31.27;18.15;;;;;;;;;;5033760;28;20053;-74
2022/04/14 08:35:00;;;;;;;25.25;17.65;;;;;;;;;;5033748;28;20030;-74
2022/04/14 08:37:26;;;;;;;27.13;15.52;;;;;;;;;;5032898;28;20344;-74
2022/04/14 08:39:52;;;;;;;27.13;16.67;;;;;;;;;;5033426;28;20130;-74
2022/04/14 08:42:21;;;;;;;29.65;19.48;;;;;;;;;;5033592;28;20030;-73
2022/04/14 08:44:49;;;;;;;26.42;15.88;;;;;;;;;;5033330;28;20029;-75
2022/04/14 08:47:16;;;;;;;23.58;16.02;;;;;;;;;;5032644;28;20022;-73
2022/04/14 08:49:44;;;;;;;34.25;21.35;;;;;;;;;;5033259;28;20037;-74
2022/04/14 08:52:14;;;;;;;28.75;20.50;;;;;;;;;;5034015;28;20511;-74
2022/04/14 08:54:40;;;;;;;26.55;17.95;;;;;;;;;;5033106;28;20117;-74
2022/04/14 08:57:09;;;;;;;29.15;19.45;;;;;;;;;;5014576;28;20022;-71
2022/04/14 08:59:35;;;;;;;29.52;18.55;;;;;;;;;;5033070;28;20021;-74
2022/04/14 09:02:04;;;;;;;29.38;18.80;;;;;;;;;;5032882;28;20018;-74
2022/04/14 09:04:31;;;;;;;27.35;18.55;;;;;;;;;;5015376;28;20033;-76
2022/04/14 09:06:57;;;;;;;29.02;19.20;;;;;;;;;;5032751;28;20049;-72
2022/04/14 09:09:24;;;;;;;26.13;18.92;;;;;;;;;;5032548;28;20477;-74
2022/04/14 09:11:50;;;;;;;33.45;20.73;;;;;;;;;;5033191;28;20314;-74
2022/04/14 09:14:16;;;;;;;33.38;17.45;;;;;;;;;;5032873;28;20096;-72
2022/04/14 09:16:42;;;;;;;33.38;22.52;;;;;;;;;;5015073;28;20554;-74
2022/04/14 09:19:08;;;;;;;32.72;20.85;;;;;;;;;;5031930;28;20022;-74
2022/04/14 09:21:34;;;;;;;25.38;18.17;;;;;;;;;;5032526;28;20450;-74
2022/04/14 09:24:00;;;;;;;30.48;21.23;;;;;;;;;;5032690;28;20505;-73
2022/04/14 09:26:26;;;;;;;31.73;20.33;;;;;;;;;;5032530;28;20105;-73
2022/04/14 09:29:01;;;;;;;27.95;19.25;;;;;;;;;;5031675;28;20048;-72
2022/04/14 09:31:28;;;;;;;27.40;18.15;;;;;;;;;;5032320;28;20455;-75
2022/04/14 09:33:55;;;;;;;35.90;20.67;;;;;;;;;;5014592;28;20025;-74
2022/04/14 09:36:23;;;;;;;36.40;22.73;;;;;;;;;;5032449;28;20051;-74
2022/04/14 09:38:56;;;;;;;37.28;20.30;;;;;;;;;;5031672;28;20029;-74
2022/04/14 09:41:41;;;;;;;28.00;19.65;;;;;;;;;;5014479;28;20475;-74
2022/04/14 09:44:08;;;;;;;40.33;18.30;;;;;;;;;;5014409;28;20029;-71
2022/04/14 09:46:34;;;;;;;32.90;19.52;;;;;;;;;;5032142;28;20137;-75
2022/04/14 09:49:05;;;;;;;31.33;19.23;;;;;;;;;;5031313;28;20033;-74
2022/04/14 09:51:33;;;;;;;30.60;19.83;;;;;;;;;;5022899;23;20421;-72
2022/04/14 09:54:11;;;;;;;28.83;18.42;;;;;;;;;;5013633;28;20091;-71
2022/04/14 09:56:39;;;;;;;33.85;22.05;;;;;;;;;;5014297;28;20392;-72
2022/04/14 09:59:09;;;;;;;28.65;18.02;;;;;;;;;;5013566;28;20021;-70
2022/04/14 10:01:35;;;;;;;36.03;19.83;;;;;;;;;;5013537;28;20033;-70
2022/04/14 10:04:02;;;;;;;31.38;20.10;;;;;;;;;;5013490;28;20022;-71
2022/04/14 10:06:29;;;;;;;36.35;20.98;;;;;;;;;;5013148;28;20029;-70
2022/04/14 10:08:55;;;;;;;31.27;20.38;;;;;;;;;;5012212;28;20026;-71
2022/04/14 10:11:40;;;;;;;34.05;20.33;;;;;;;;;;5012530;28;20034;-71
2022/04/14 10:14:10;;;;;;;30.80;19.30;;;;;;;;;;5013041;28;20034;-71
2022/04/14 10:16:38;;;;;;;32.72;20.50;;;;;;;;;;5012957;28;20120;-71
2022/04/14 10:19:04;;;;;;;45.33;25.98;;;;;;;;;;5012489;28;20022;-71
2022/04/14 10:21:31;;;;;;;32.42;20.20;;;;;;;;;;4995726;28;20034;-72
2022/04/14 10:23:57;;;;;;;29.33;20.05;;;;;;;;;;5012828;28;20026;-70
2022/04/14 10:26:23;;;;;;;34.28;20.27;;;;;;;;;;4995331;28;20033;-70
2022/04/14 10:28:49;;;;;;;28.60;18.48;;;;;;;;;;5012060;28;20052;-71
2022/04/14 10:31:17;;;;;;;29.40;19.67;;;;;;;;;;5012739;28;20030;-71
2022/04/14 10:33:45;;;;;;;28.70;19.13;;;;;;;;;;5013161;28;20063;-71
2022/04/14 10:36:11;;;;;;;29.27;18.70;;;;;;;;;;5012992;28;20033;-71
2022/04/14 10:38:38;;;;;;;32.05;19.80;;;;;;;;;;5013181;28;20022;-70
2022/04/14 10:41:07;;;;;;;29.13;18.88;;;;;;;;;;5013488;28;20026;-71
2022/04/14 10:43:36;;;;;;;29.77;18.42;;;;;;;;;;5012711;28;20030;-71
2022/04/14 10:46:03;;;;;;;34.15;19.65;;;;;;;;;;5012948;28;20026;-71
2022/04/14 10:48:33;;;;;;;30.48;18.52;;;;;;;;;;5012486;28;20491;-71
2022/04/14 10:51:14;;;;;;;28.52;19.60;;;;;;;;;;5013090;28;20040;-70
2022/04/14 10:54:00;;;;;;;32.53;21.13;;;;;;;;;;5013382;28;20021;-70
2022/04/14 10:56:35;;;;;;;37.20;20.77;;;;;;;;;;5013014;28;20097;-71
2022/04/14 10:59:14;;;;;;;27.05;18.30;;;;;;;;;;5012239;28;20033;-71
2022/04/14 11:01:52;;;;;;;34.00;19.23;;;;;;;;;;5012931;28;20023;-71
2022/04/14 11:04:24;;;;;;;31.00;17.35;;;;;;;;;;5013475;28;20037;-71
2022/04/14 11:06:51;;;;;;;30.42;18.33;;;;;;;;;;5013340;28;20515;-70
2022/04/14 11:09:36;;;;;;;26.83;17.23;;;;;;;;;;5011992;28;20026;-70
2022/04/14 11:12:02;;;;;;;26.42;17.35;;;;;;;;;;5012486;28;20561;-71
2022/04/14 11:14:28;;;;;;;26.60;16.67;;;;;;;;;;5012415;28;20022;-71
2022/04/14 11:16:54;;;;;;;26.65;17.10;;;;;;;;;;5012380;28;20088;-71
2022/04/14 11:19:21;;;;;;;28.48;17.90;;;;;;;;;;5012285;28;20022;-70
2022/04/14 11:22:05;;;;;;;26.42;17.17;;;;;;;;;;5012218;28;20021;-71
2022/04/14 11:24:40;;;;;;;24.23;14.50;;;;;;;;;;4994763;28;20365;-72
2022/04/14 11:27:20;;;;;;;24.38;16.38;;;;;;;;;;5011512;28;20476;-70
2022/04/14 11:29:47;;;;;;;27.27;17.08;;;;;;;;;;4994478;28;20038;-70
2022/04/14 11:32:14;;;;;;;24.52;16.17;;;;;;;;;;5011776;28;20049;-70
2022/04/14 11:34:40;;;;;;;25.50;17.35;;;;;;;;;;4994292;28;20050;-71
2022/04/14 11:37:25;;;;;;;22.77;15.35;;;;;;;;;;5010994;28;20033;-70
2022/04/14 11:40:10;;;;;;;25.65;14.45;;;;;;;;;;5012180;28;20030;-72
2022/04/14 11:42:36;;;;;;;17.83;11.93;;;;;;;;;;5012176;28;20499;-71
2022/04/14 11:45:02;;;;;;;23.13;12.90;;;;;;;;;;5011608;28;20265;-72
2022/04/14 11:47:29;;;;;;;20.77;12.00;;;;;;;;;;5012846;28;20033;-72
2022/04/14 11:49:55;;;;;;;23.42;12.68;;;;;;;;;;5015572;28;20103;-73
2022/04/14 11:52:22;;;;;;;18.80;13.75;;;;;;;;;;5015446;28;20084;-72
2022/04/14 11:54:49;;;;;;;22.13;14.55;;;;;;;;;;5015799;28;20030;-71
2022/04/14 11:57:19;;;;;;;16.98;13.18;;;;;;;;;;5015695;28;20090;-72
2022/04/14 11:59:46;;;;;;;19.25;14.48;;;;;;;;;;5016336;28;20026;-71
2022/04/14 12:02:14;;;;;;;16.65;12.93;;;;;;;;;;5016722;28;20026;-71
2022/04/14 12:04:40;;;;;;;19.20;13.05;;;;;;;;;;5016679;28;20029;-71
2022/04/14 12:07:07;;;;;;;16.67;12.32;;;;;;;;;;5014326;28;20480;-71
2022/04/14 12:09:33;;;;;;;22.38;12.60;;;;;;;;;;5015044;28;20030;-71
2022/04/14 12:12:09;;;;;;;20.75;12.48;;;;;;;;;;5014603;28;20037;-72
2022/04/14 12:14:35;;;;;;;20.92;12.55;;;;;;;;;;5015053;28;20391;-72
2022/04/14 12:17:01;;;;;;;26.00;15.43;;;;;;;;;;5015375;28;20479;-71
2022/04/14 12:19:46;;;;;;;13.70;11.15;;;;;;;;;;5014924;28;20080;-72
2022/04/14 12:22:13;;;;;;;17.35;10.65;;;;;;;;;;5014837;28;20041;-72
2022/04/14 12:24:39;;;;;;;24.25;12.63;;;;;;;;;;5014897;28;20032;-73
2022/04/14 12:27:06;;;;;;;13.52;8.85;;;;;;;;;;5014338;28;20021;-69
2022/04/14 12:29:32;;;;;;;18.50;12.18;;;;;;;;;;5014885;28;20475;-70
2022/04/14 12:32:09;;;;;;;19.98;13.20;;;;;;;;;;5016326;28;20032;-72
2022/04/14 12:34:35;;;;;;;15.02;9.52;;;;;;;;;;4999380;28;20420;-71
2022/04/14 12:37:09;;;;;;;13.35;9.63;;;;;;;;;;5016226;28;20018;-70
2022/04/14 12:39:34;;;;;;;13.20;9.73;;;;;;;;;;5016272;28;20105;-71
2022/04/14 12:42:01;;;;;;;14.68;10.38;;;;;;;;;;5014786;28;20071;-70
2022/04/14 12:44:27;;;;;;;15.55;9.68;;;;;;;;;;5014457;28;20438;-72
2022/04/14 12:46:53;;;;;;;18.13;10.15;;;;;;;;;;4997248;28;20029;-71
2022/04/14 12:49:29;;;;;;;18.10;11.98;;;;;;;;;;5014403;28;20108;-71
2022/04/14 12:51:55;;;;;;;15.68;9.65;;;;;;;;;;5015057;28;20069;-71
2022/04/14 12:54:23;;;;;;;12.50;9.50;;;;;;;;;;5015378;28;20084;-71
2022/04/14 12:57:01;;;;;;;12.27;7.85;;;;;;;;;;5014749;28;20105;-71
2022/04/14 12:59:27;;;;;;;12.30;8.30;;;;;;;;;;5014395;28;20026;-71
2022/04/14 13:02:06;;;;;;;13.30;8.50;;;;;;;;;;5014313;28;20028;-71
2022/04/14 13:04:34;;;;;;;12.52;6.30;;;;;;;;;;5014349;28;20530;-71
2022/04/14 13:07:00;;;;;;;15.45;7.93;;;;;;;;;;4996106;28;20022;-71
2022/04/14 13:09:27;;;;;;;9.80;5.97;;;;;;;;;;5013922;28;20030;-71
2022/04/14 13:11:53;;;;;;;8.32;4.60;;;;;;;;;;5014161;28;20108;-72
2022/04/14 13:14:19;;;;;;;9.82;5.88;;;;;;;;;;5013880;28;20018;-71
2022/04/14 13:16:45;;;;;;;11.63;5.00;;;;;;;;;;5014034;28;20395;-71
2022/04/14 13:19:12;;;;;;;14.30;7.53;;;;;;;;;;4995853;28;20113;-71
2022/04/14 13:21:38;;;;;;;12.95;7.13;;;;;;;;;;4997279;28;20017;-72
2022/04/14 13:24:04;;;;;;;11.68;6.57;;;;;;;;;;5014992;28;20123;-72
2022/04/14 13:26:30;;;;;;;5.85;4.15;;;;;;;;;;5014305;28;20080;-71
2022/04/14 13:28:56;;;;;;;9.27;5.68;;;;;;;;;;5013858;28;20073;-72
2022/04/14 13:31:22;;;;;;;12.52;5.03;;;;;;;;;;5013685;28;20026;-70
2022/04/14 13:33:48;;;;;;;10.43;5.88;;;;;;;;;;5013385;28;20034;-73
2022/04/14 13:36:14;;;;;;;11.10;4.88;;;;;;;;;;5013555;28;20086;-71
2022/04/14 13:38:40;;;;;;;8.25;4.57;;;;;;;;;;5013470;28;20022;-71
2022/04/14 13:41:06;;;;;;;9.10;5.35;;;;;;;;;;5013401;28;20030;-71
2022/04/14 13:43:32;;;;;;;7.65;4.97;;;;;;;;;;4994940;28;20036;-70
2022/04/14 13:45:57;;;;;;;13.60;5.72;;;;;;;;;;5012129;28;20076;-71
2022/04/14 13:48:23;;;;;;;8.48;4.38;;;;;;;;;;5007163;28;20033;-74
2022/04/14 13:50:54;;;;;;;12.13;5.47;;;;;;;;;;5038594;22;20112;-75
2022/04/14 13:53:48;;;;;;;;;;;;;;;;;;;;;
2022/04/14 14:00:15;;;;;;;9.13;4.10;;;;;;;;;;4965066;28;20045;-75
2022/04/14 14:02:41;;;;;;;7.45;3.58;;;;;;;;;;5004195;28;20075;-73
2022/04/14 14:05:09;;;;;;;13.25;6.10;;;;;;;;;;5006658;28;20093;-71
2022/04/14 14:07:35;;;;;;;9.90;5.45;;;;;;;;;;5034129;23;20137;-76
2022/04/14 14:10:01;;;;;;;9.90;4.35;;;;;;;;;;5014063;28;20822;-71
2022/04/14 14:12:27;;;;;;;11.10;5.72;;;;;;;;;;5011769;28;20018;-74
2022/04/14 14:14:52;;;;;;;10.65;5.13;;;;;;;;;;5011624;28;20029;-76
2022/04/14 14:17:18;;;;;;;8.63;4.25;;;;;;;;;;5010453;28;20548;-73
2022/04/14 14:19:44;;;;;;;7.30;3.50;;;;;;;;;;5020943;28;20351;-74
2022/04/14 14:22:10;;;;;;;10.38;4.85;;;;;;;;;;5031084;28;20024;-75
2022/04/14 14:24:37;;;;;;;9.80;5.88;;;;;;;;;;5028682;28;20029;-71
2022/04/14 14:27:03;;;;;;;9.63;4.70;;;;;;;;;;5010712;28;20134;-73
2022/04/14 14:29:29;;;;;;;7.03;4.57;;;;;;;;;;5011160;28;20085;-72
2022/04/14 14:31:55;;;;;;;7.18;3.88;;;;;;;;;;5011667;28;20038;-70